sensor_id;sensor_type;location;lat;lon;timestamp;pressure;altitude;pressure_sealevel;temperature;humidity
35023;BME280;21214;44.912;8.204;2023-06-10T00:01:12;99317.81;;;20.26;100.00
35023;BME280;21214;44.912;8.204;2023-06-10T00:03:37;99316.97;;;20.25;100.00
35023;BME280;21214;44.912;8.204;2023-06-10T00:06:03;99319.88;;;20.24;100.00
35023;BME280;21214;44.912;8.204;2023-06-10T00:08:28;99319.88;;;20.24;100.00
35023;BME280;21214;44.912;8.204;2023-06-10T00:10:56;99320.28;;;20.21;100.00
35023;BME280;21214;44.912;8.204;2023-06-10T00:13:22;99313.88;;;20.22;100.00
35023;BME280;21214;44.912;8.204;2023-06-10T00:15:48;99313.06;;;20.21;100.00
35023;BME280;21214;44.912;8.204;2023-06-10T00:18:14;99320.28;;;20.21;100.00
35023;BME280;21214;44.912;8.204;2023-06-10T00:20:39;99314.91;;;20.21;100.00
35023;BME280;21214;44.912;8.204;2023-06-10T00:23:05;99308.75;;;20.20;100.00
35023;BME280;21214;44.912;8.204;2023-06-10T00:25:33;99311.22;;;20.22;100.00
35023;BME280;21214;44.912;8.204;2023-06-10T00:27:59;99305.84;;;20.22;100.00
35023;BME280;21214;44.912;8.204;2023-06-10T00:30:24;99305.84;;;20.22;100.00
35023;BME280;21214;44.912;8.204;2023-06-10T00:32:49;99316.38;;;20.17;100.00
35023;BME280;21214;44.912;8.204;2023-06-10T00:35:15;99301.94;;;20.18;100.00
35023;BME280;21214;44.912;8.204;2023-06-10T00:37:40;99313.69;;;20.17;100.00
35023;BME280;21214;44.912;8.204;2023-06-10T00:40:06;99298.06;;;20.14;100.00
35023;BME280;21214;44.912;8.204;2023-06-10T00:42:32;99305.88;;;20.15;100.00
35023;BME280;21214;44.912;8.204;2023-06-10T00:44:58;99305.47;;;20.12;100.00
35023;BME280;21214;44.912;8.204;2023-06-10T00:47:25;99307.31;;;20.11;100.00
35023;BME280;21214;44.912;8.204;2023-06-10T00:49:50;99296.63;;;20.11;100.00
35023;BME280;21214;44.912;8.204;2023-06-10T00:52:16;99303.81;;;20.11;100.00
35023;BME280;21214;44.912;8.204;2023-06-10T00:54:41;99297.63;;;20.10;100.00
35023;BME280;21214;44.912;8.204;2023-06-10T00:57:07;99301.34;;;20.09;100.00
35023;BME280;21214;44.912;8.204;2023-06-10T00:59:34;99302.16;;;20.10;100.00
35023;BME280;21214;44.912;8.204;2023-06-10T01:01:59;99297.25;;;20.07;100.00
35023;BME280;21214;44.912;8.204;2023-06-10T01:04:25;99296.63;;;20.04;100.00
35023;BME280;21214;44.912;8.204;2023-06-10T01:07:00;99294.16;;;20.03;100.00
35023;BME280;21214;44.912;8.204;2023-06-10T01:14:28;99287.19;;;19.95;100.00
35023;BME280;21214;44.912;8.204;2023-06-10T01:16:54;99285.09;;;19.97;100.00
35023;BME280;21214;44.912;8.204;2023-06-10T01:19:19;99283.25;;;19.91;100.00
35023;BME280;21214;44.912;8.204;2023-06-10T01:21:45;99287.38;;;19.87;100.00
35023;BME280;21214;44.912;8.204;2023-06-10T01:24:14;99284.09;;;19.85;100.00
35023;BME280;21214;44.912;8.204;2023-06-10T01:26:40;99285.75;;;19.86;100.00
35023;BME280;21214;44.912;8.204;2023-06-10T01:29:07;99283.69;;;19.88;100.00
35023;BME280;21214;44.912;8.204;2023-06-10T01:31:39;99289.88;;;19.89;100.00
35023;BME280;21214;44.912;8.204;2023-06-10T01:34:08;99287.38;;;19.87;100.00
35023;BME280;21214;44.912;8.204;2023-06-10T01:36:35;99288.84;;;19.83;100.00
35023;BME280;21214;44.912;8.204;2023-06-10T01:39:02;99287.41;;;19.81;100.00
35023;BME280;21214;44.912;8.204;2023-06-10T01:41:28;99285.56;;;19.81;100.00
35023;BME280;21214;44.912;8.204;2023-06-10T01:43:54;99282.66;;;19.83;100.00
35023;BME280;21214;44.912;8.204;2023-06-10T01:46:19;99289.06;;;19.75;100.00
35023;BME280;21214;44.912;8.204;2023-06-10T01:48:46;99291.16;;;19.60;100.00
35023;BME280;21214;44.912;8.204;2023-06-10T01:51:12;99284.53;;;19.56;100.00
35023;BME280;21214;44.912;8.204;2023-06-10T01:53:37;99291.53;;;19.50;100.00
35023;BME280;21214;44.912;8.204;2023-06-10T01:56:02;99288.66;;;19.52;100.00
35023;BME280;21214;44.912;8.204;2023-06-10T01:58:28;99282.09;;;19.54;100.00
35023;BME280;21214;44.912;8.204;2023-06-10T02:00:54;99281.28;;;19.54;100.00
35023;BME280;21214;44.912;8.204;2023-06-10T02:03:20;99276.31;;;19.51;100.00
35023;BME280;21214;44.912;8.204;2023-06-10T02:05:45;99273.44;;;19.46;100.00
35023;BME280;21214;44.912;8.204;2023-06-10T02:08:10;99283.13;;;19.47;100.00
35023;BME280;21214;44.912;8.204;2023-06-10T02:10:36;99273.03;;;19.49;100.00
35023;BME280;21214;44.912;8.204;2023-06-10T02:13:02;99271.78;;;19.51;100.00
35023;BME280;21214;44.912;8.204;2023-06-10T02:15:28;99274.66;;;19.50;100.00
35023;BME280;21214;44.912;8.204;2023-06-10T02:17:53;99265.59;;;19.51;100.00
35023;BME280;21214;44.912;8.204;2023-06-10T02:20:19;99273.03;;;19.55;100.00
35023;BME280;21214;44.912;8.204;2023-06-10T02:22:45;99264.78;;;19.57;100.00
35023;BME280;21214;44.912;8.204;2023-06-10T02:25:11;99275.50;;;19.57;100.00
35023;BME280;21214;44.912;8.204;2023-06-10T02:27:36;99270.75;;;19.59;100.00
35023;BME280;21214;44.912;8.204;2023-06-10T02:30:02;99267.88;;;19.60;100.00
35023;BME280;21214;44.912;8.204;2023-06-10T02:32:30;99266.63;;;19.63;100.00
35023;BME280;21214;44.912;8.204;2023-06-10T02:34:55;99263.94;;;19.63;100.00
35023;BME280;21214;44.912;8.204;2023-06-10T02:37:23;99257.56;;;19.64;100.00
35023;BME280;21214;44.912;8.204;2023-06-10T02:39:48;99262.94;;;19.64;100.00
35023;BME280;21214;44.912;8.204;2023-06-10T02:42:14;99267.66;;;19.62;100.00
35023;BME280;21214;44.912;8.204;2023-06-10T02:44:39;99263.94;;;19.63;100.00
35023;BME280;21214;44.912;8.204;2023-06-10T02:47:07;99260.25;;;19.64;100.00
35023;BME280;21214;44.912;8.204;2023-06-10T02:49:35;99263.94;;;19.63;100.00
35023;BME280;21214;44.912;8.204;2023-06-10T02:52:01;99263.94;;;19.63;100.00
35023;BME280;21214;44.912;8.204;2023-06-10T02:54:26;99260.69;;;19.61;100.00
35023;BME280;21214;44.912;8.204;2023-06-10T02:56:53;99258.00;;;19.61;100.00
35023;BME280;21214;44.912;8.204;2023-06-10T02:59:23;99258.41;;;19.58;100.00
35023;BME280;21214;44.912;8.204;2023-06-10T03:01:48;99259.44;;;19.57;100.00
35023;BME280;21214;44.912;8.204;2023-06-10T03:04:14;99261.28;;;19.50;100.00
35023;BME280;21214;44.912;8.204;2023-06-10T03:06:44;99265.22;;;19.54;100.00
35023;BME280;21214;44.912;8.204;2023-06-10T03:09:17;99272.22;;;19.55;100.00
35023;BME280;21214;44.912;8.204;2023-06-10T03:11:46;99272.22;;;19.55;100.00
35023;BME280;21214;44.912;8.204;2023-06-10T03:14:12;99265.81;;;19.56;100.00
35023;BME280;21214;44.912;8.204;2023-06-10T03:16:37;99260.25;;;19.57;100.00
35023;BME280;21214;44.912;8.204;2023-06-10T03:19:06;99268.09;;;19.59;100.00
35023;BME280;21214;44.912;8.204;2023-06-10T03:21:36;99270.13;;;19.57;100.00
35023;BME280;21214;44.912;8.204;2023-06-10T03:24:03;99268.47;;;19.56;100.00
35023;BME280;21214;44.912;8.204;2023-06-10T03:26:30;99272.22;;;19.55;100.00
35023;BME280;21214;44.912;8.204;2023-06-10T03:28:55;99272.63;;;19.52;100.00
35023;BME280;21214;44.912;8.204;2023-06-10T03:31:23;99265.56;;;19.44;100.00
35023;BME280;21214;44.912;8.204;2023-06-10T03:33:50;99275.25;;;19.39;100.00
35023;BME280;21214;44.912;8.204;2023-06-10T03:36:15;99275.88;;;19.41;100.00
35023;BME280;21214;44.912;8.204;2023-06-10T03:38:41;99276.50;;;19.43;100.00
35023;BME280;21214;44.912;8.204;2023-06-10T03:41:07;99275.28;;;19.45;100.00
35023;BME280;21214;44.912;8.204;2023-06-10T03:43:33;99272.63;;;19.45;100.00
35023;BME280;21214;44.912;8.204;2023-06-10T03:45:59;99275.09;;;19.47;100.00
35023;BME280;21214;44.912;8.204;2023-06-10T03:48:25;99277.56;;;19.48;100.00
35023;BME280;21214;44.912;8.204;2023-06-10T03:50:52;99264.78;;;19.44;100.00
35023;BME280;21214;44.912;8.204;2023-06-10T03:53:19;99264.56;;;19.39;100.00
35023;BME280;21214;44.912;8.204;2023-06-10T03:55:45;99271.56;;;19.40;100.00
35023;BME280;21214;44.912;8.204;2023-06-10T03:58:11;99271.56;;;19.33;100.00
35023;BME280;21214;44.912;8.204;2023-06-10T04:00:39;99273.41;;;19.33;100.00
35023;BME280;21214;44.912;8.204;2023-06-10T04:03:09;99274.22;;;19.33;100.00
35023;BME280;21214;44.912;8.204;2023-06-10T04:05:42;99268.03;;;19.33;100.00
35023;BME280;21214;44.912;8.204;2023-06-10T04:08:08;99276.50;;;19.36;100.00
35023;BME280;21214;44.912;8.204;2023-06-10T04:10:33;99268.06;;;19.39;100.00
35023;BME280;21214;44.912;8.204;2023-06-10T04:12:59;99265.19;;;19.41;100.00
35023;BME280;21214;44.912;8.204;2023-06-10T04:15:29;99263.53;;;19.40;100.00
35023;BME280;21214;44.912;8.204;2023-06-10T04:17:58;99260.25;;;19.38;100.00
35023;BME280;21214;44.912;8.204;2023-06-10T04:20:26;99256.13;;;19.42;100.00
35023;BME280;21214;44.912;8.204;2023-06-10T04:22:51;99262.72;;;19.46;100.00
35023;BME280;21214;44.912;8.204;2023-06-10T04:25:17;99259.66;;;19.49;100.00
35023;BME280;21214;44.912;8.204;2023-06-10T04:27:43;99255.34;;;19.48;100.00
35023;BME280;21214;44.912;8.204;2023-06-10T04:30:09;99255.94;;;19.50;100.00
35023;BME280;21214;44.912;8.204;2023-06-10T04:32:36;99255.34;;;19.48;100.00
35023;BME280;21214;44.912;8.204;2023-06-10T04:35:02;99263.56;;;19.46;100.00
35023;BME280;21214;44.912;8.204;2023-06-10T04:37:28;99263.16;;;19.49;100.00
35023;BME280;21214;44.912;8.204;2023-06-10T04:39:54;99256.34;;;19.47;100.00
35023;BME280;21214;44.912;8.204;2023-06-10T04:42:20;99259.44;;;19.44;100.00
35023;BME280;21214;44.912;8.204;2023-06-10T04:44:45;99258.59;;;19.37;100.00
35023;BME280;21214;44.912;8.204;2023-06-10T04:47:11;99271.34;;;19.21;100.00
35023;BME280;21214;44.912;8.204;2023-06-10T04:49:37;99262.72;;;19.19;100.00
35023;BME280;21214;44.912;8.204;2023-06-10T04:52:03;99259.63;;;19.22;100.00
35023;BME280;21214;44.912;8.204;2023-06-10T04:54:33;99262.94;;;19.25;100.00
35023;BME280;21214;44.912;8.204;2023-06-10T04:56:59;99265.16;;;19.28;100.00
35023;BME280;21214;44.912;8.204;2023-06-10T04:59:25;99266.44;;;19.32;100.00
35023;BME280;21214;44.912;8.204;2023-06-10T05:01:51;99262.09;;;19.31;100.00
35023;BME280;21214;44.912;8.204;2023-06-10T05:04:16;99263.13;;;19.36;100.00
35023;BME280;21214;44.912;8.204;2023-06-10T05:06:42;99261.88;;;19.39;100.00
35023;BME280;21214;44.912;8.204;2023-06-10T05:09:07;99260.25;;;19.38;100.00
35023;BME280;21214;44.912;8.204;2023-06-10T05:11:33;99270.97;;;19.38;100.00
35023;BME280;21214;44.912;8.204;2023-06-10T05:13:58;99272.56;;;19.39;100.00
35023;BME280;21214;44.912;8.204;2023-06-10T05:16:23;99270.72;;;19.33;100.00
35023;BME280;21214;44.912;8.204;2023-06-10T05:18:49;99265.16;;;19.28;100.00
35023;BME280;21214;44.912;8.204;2023-06-10T05:21:16;99256.75;;;19.31;100.00
35023;BME280;21214;44.912;8.204;2023-06-10T05:23:41;99255.31;;;19.35;100.00
35023;BME280;21214;44.912;8.204;2023-06-10T05:26:07;99256.13;;;19.29;100.00
35023;BME280;21214;44.912;8.204;2023-06-10T05:28:33;99252.63;;;19.35;100.00
35023;BME280;21214;44.912;8.204;2023-06-10T05:30:58;99248.50;;;19.39;100.00
35023;BME280;21214;44.912;8.204;2023-06-10T05:33:23;99254.47;;;19.41;100.00
35023;BME280;21214;44.912;8.204;2023-06-10T05:35:49;99253.25;;;19.43;100.00
35023;BME280;21214;44.912;8.204;2023-06-10T05:38:15;99253.69;;;19.47;100.00
35023;BME280;21214;44.912;8.204;2023-06-10T05:40:40;99251.19;;;19.52;100.00
35023;BME280;21214;44.912;8.204;2023-06-10T05:43:06;99259.44;;;19.57;100.00
35023;BME280;21214;44.912;8.204;2023-06-10T05:45:31;99264.38;;;19.60;100.00
35023;BME280;21214;44.912;8.204;2023-06-10T05:47:57;99263.56;;;19.66;100.00
35023;BME280;21214;44.912;8.204;2023-06-10T05:50:23;99264.56;;;19.72;100.00
35023;BME280;21214;44.912;8.204;2023-06-10T05:52:49;99266.63;;;19.76;100.00
35023;BME280;21214;44.912;8.204;2023-06-10T05:55:15;99270.94;;;19.77;100.00
35023;BME280;21214;44.912;8.204;2023-06-10T05:57:41;99274.22;;;19.79;100.00
35023;BME280;21214;44.912;8.204;2023-06-10T06:00:07;99272.16;;;19.81;100.00
35023;BME280;21214;44.912;8.204;2023-06-10T06:02:37;99272.59;;;19.78;100.00
35023;BME280;21214;44.912;8.204;2023-06-10T06:05:03;99276.28;;;19.77;100.00
35023;BME280;21214;44.912;8.204;2023-06-10T06:07:29;99270.94;;;19.84;100.00
35023;BME280;21214;44.912;8.204;2023-06-10T06:09:55;99274.81;;;19.88;100.00
35023;BME280;21214;44.912;8.204;2023-06-10T06:12:20;99275.25;;;19.85;100.00
35023;BME280;21214;44.912;8.204;2023-06-10T06:14:45;99280.38;;;19.86;100.00
35023;BME280;21214;44.912;8.204;2023-06-10T06:17:11;99280.38;;;19.86;100.00
35023;BME280;21214;44.912;8.204;2023-06-10T06:19:36;99280.56;;;19.91;100.00
35023;BME280;21214;44.912;8.204;2023-06-10T06:22:02;99277.50;;;19.88;100.00
35023;BME280;21214;44.912;8.204;2023-06-10T06:24:27;99282.47;;;19.84;100.00
35023;BME280;21214;44.912;8.204;2023-06-10T06:26:53;99276.28;;;19.90;100.00
35023;BME280;21214;44.912;8.204;2023-06-10T06:29:18;99272.13;;;19.94;100.00
35023;BME280;21214;44.912;8.204;2023-06-10T06:31:43;99270.88;;;20.03;100.00
35023;BME280;21214;44.912;8.204;2023-06-10T06:34:09;99277.66;;;20.13;100.00
35023;BME280;21214;44.912;8.204;2023-06-10T06:36:34;99270.00;;;20.23;100.00
35023;BME280;21214;44.912;8.204;2023-06-10T06:39:00;99274.72;;;20.34;100.00
35023;BME280;21214;44.912;8.204;2023-06-10T06:41:26;99272.41;;;20.44;100.00
35023;BME280;21214;44.912;8.204;2023-06-10T06:43:53;99278.16;;;20.48;100.00
35023;BME280;21214;44.912;8.204;2023-06-10T06:46:29;99278.94;;;20.61;100.00
35023;BME280;21214;44.912;8.204;2023-06-10T06:48:55;99284.22;;;20.74;100.00
35023;BME280;21214;44.912;8.204;2023-06-10T06:51:20;99281.28;;;20.82;100.00
35023;BME280;21214;44.912;8.204;2023-06-10T06:53:45;99277.56;;;20.83;100.00
35023;BME280;21214;44.912;8.204;2023-06-10T06:56:11;99270.31;;;20.91;100.00
35023;BME280;21214;44.912;8.204;2023-06-10T06:58:37;99270.50;;;20.96;100.00
35023;BME280;21214;44.912;8.204;2023-06-10T07:01:02;99275.41;;;20.99;100.00
35023;BME280;21214;44.912;8.204;2023-06-10T07:03:28;99275.16;;;21.07;100.00
35023;BME280;21214;44.912;8.204;2023-06-10T07:05:53;99282.34;;;21.13;100.00
35023;BME280;21214;44.912;8.204;2023-06-10T07:08:19;99279.03;;;21.17;100.00
35023;BME280;21214;44.912;8.204;2023-06-10T07:10:44;99286.41;;;21.22;100.00
35023;BME280;21214;44.912;8.204;2023-06-10T07:13:10;99287.03;;;21.24;100.00
35023;BME280;21214;44.912;8.204;2023-06-10T07:15:35;99287.91;;;21.11;100.00
35023;BME280;21214;44.912;8.204;2023-06-10T07:18:01;99288.13;;;21.10;100.00
35023;BME280;21214;44.912;8.204;2023-06-10T07:20:26;99290.28;;;20.95;100.00
35023;BME280;21214;44.912;8.204;2023-06-10T07:22:51;99287.00;;;20.93;100.00
35023;BME280;21214;44.912;8.204;2023-06-10T07:25:17;99284.53;;;20.91;100.00
35023;BME280;21214;44.912;8.204;2023-06-10T07:27:42;99280.59;;;20.94;100.00
35023;BME280;21214;44.912;8.204;2023-06-10T07:30:08;99285.78;;;20.89;100.00
35023;BME280;21214;44.912;8.204;2023-06-10T07:32:34;99298.50;;;21.00;100.00
35023;BME280;21214;44.912;8.204;2023-06-10T07:35:00;99286.31;;;21.04;100.00
35023;BME280;21214;44.912;8.204;2023-06-10T07:37:25;99296.56;;;21.13;100.00
35023;BME280;21214;44.912;8.204;2023-06-10T07:39:51;99295.75;;;21.19;100.00
35023;BME280;21214;44.912;8.204;2023-06-10T07:42:17;99289.56;;;21.19;100.00
35023;BME280;21214;44.912;8.204;2023-06-10T07:44:42;99291.91;;;21.02;100.00
35023;BME280;21214;44.912;8.204;2023-06-10T07:47:07;99295.13;;;21.11;100.00
35023;BME280;21214;44.912;8.204;2023-06-10T07:49:33;99295.94;;;21.18;100.00
35023;BME280;21214;44.912;8.204;2023-06-10T07:51:58;99296.56;;;21.20;100.00
35023;BME280;21214;44.912;8.204;2023-06-10T07:54:24;99289.72;;;21.24;100.00
35023;BME280;21214;44.912;8.204;2023-06-10T07:56:49;99296.69;;;21.32;100.00
35023;BME280;21214;44.912;8.204;2023-06-10T07:59:17;99291.28;;;21.38;100.00
35023;BME280;21214;44.912;8.204;2023-06-10T08:01:42;99296.19;;;21.41;100.00
35023;BME280;21214;44.912;8.204;2023-06-10T08:04:08;99294.13;;;21.43;100.00
35023;BME280;21214;44.912;8.204;2023-06-10T08:06:33;99296.97;;;21.48;100.00
35023;BME280;21214;44.912;8.204;2023-06-10T08:08:59;99293.25;;;21.49;100.00
35023;BME280;21214;44.912;8.204;2023-06-10T08:11:25;99295.63;;;21.57;100.00
35023;BME280;21214;44.912;8.204;2023-06-10T08:13:53;99302.66;;;21.58;100.00
35023;BME280;21214;44.912;8.204;2023-06-10T08:16:19;99301.34;;;21.43;100.00
35023;BME280;21214;44.912;8.204;2023-06-10T08:18:44;99301.09;;;21.44;100.00
35023;BME280;21214;44.912;8.204;2023-06-10T08:21:10;99302.25;;;21.30;100.00
35023;BME280;21214;44.912;8.204;2023-06-10T08:23:35;99307.19;;;21.33;100.00
35023;BME280;21214;44.912;8.204;2023-06-10T08:26:01;99297.56;;;21.26;100.00
35023;BME280;21214;44.912;8.204;2023-06-10T08:28:26;99306.19;;;21.28;100.00
35023;BME280;21214;44.912;8.204;2023-06-10T08:30:52;99305.56;;;21.32;100.00
35023;BME280;21214;44.912;8.204;2023-06-10T08:33:17;99306.88;;;21.48;100.00
35023;BME280;21214;44.912;8.204;2023-06-10T08:35:43;99303.03;;;21.62;100.00
35023;BME280;21214;44.912;8.204;2023-06-10T08:38:08;99308.78;;;21.65;100.00
35023;BME280;21214;44.912;8.204;2023-06-10T08:40:34;99305.66;;;21.69;100.00
35023;BME280;21214;44.912;8.204;2023-06-10T08:45:29;99306.41;;;21.76;100.00
35023;BME280;21214;44.912;8.204;2023-06-10T08:47:56;99306.16;;;21.84;100.00
35023;BME280;21214;44.912;8.204;2023-06-10T08:50:22;99310.97;;;22.00;100.00
35023;BME280;21214;44.912;8.204;2023-06-10T08:52:50;99313.31;;;22.15;100.00
35023;BME280;21214;44.912;8.204;2023-06-10T08:57:51;99304.44;;;22.32;100.00
35023;BME280;21214;44.912;8.204;2023-06-10T09:00:18;99315.25;;;22.26;100.00
35023;BME280;21214;44.912;8.204;2023-06-10T09:02:44;99313.97;;;22.28;100.00
35023;BME280;21214;44.912;8.204;2023-06-10T09:05:09;99310.53;;;22.39;100.00
35023;BME280;21214;44.912;8.204;2023-06-10T09:07:35;99310.16;;;22.36;100.00
35023;BME280;21214;44.912;8.204;2023-06-10T09:10:02;99301.88;;;22.37;100.00
35023;BME280;21214;44.912;8.204;2023-06-10T09:12:29;99303.44;;;22.45;100.00
35023;BME280;21214;44.912;8.204;2023-06-10T09:14:54;99300.97;;;22.43;100.00
35023;BME280;21214;44.912;8.204;2023-06-10T09:17:21;99309.34;;;22.35;100.00
35023;BME280;21214;44.912;8.204;2023-06-10T09:19:47;99300.66;;;22.33;100.00
35023;BME280;21214;44.912;8.204;2023-06-10T09:22:12;99302.03;;;22.24;100.00
35023;BME280;21214;44.912;8.204;2023-06-10T09:24:38;99306.03;;;22.33;100.00
35023;BME280;21214;44.912;8.204;2023-06-10T09:27:04;99305.91;;;22.46;100.00
35023;BME280;21214;44.912;8.204;2023-06-10T09:29:31;99302.09;;;22.54;100.00
35023;BME280;21214;44.912;8.204;2023-06-10T09:31:57;99299.00;;;22.69;100.00
35023;BME280;21214;44.912;8.204;2023-06-10T09:34:24;99301.53;;;22.82;100.00
35023;BME280;21214;44.912;8.204;2023-06-10T09:36:50;99295.59;;;22.92;100.00
35023;BME280;21214;44.912;8.204;2023-06-10T09:39:17;99294.72;;;23.09;100.00
35023;BME280;21214;44.912;8.204;2023-06-10T09:41:42;99300.38;;;23.19;100.00
35023;BME280;21214;44.912;8.204;2023-06-10T09:44:15;99301.47;;;23.30;100.00
35023;BME280;21214;44.912;8.204;2023-06-10T09:46:40;99297.34;;;23.27;100.00
35023;BME280;21214;44.912;8.204;2023-06-10T09:49:06;99290.72;;;23.42;100.00
35023;BME280;21214;44.912;8.204;2023-06-10T09:51:31;99297.13;;;23.41;100.00
35023;BME280;21214;44.912;8.204;2023-06-10T09:53:57;99294.88;;;23.56;100.00
35023;BME280;21214;44.912;8.204;2023-06-10T09:56:32;99294.38;;;23.59;100.00
35023;BME280;21214;44.912;8.204;2023-06-10T09:58:58;99292.97;;;23.68;100.00
35023;BME280;21214;44.912;8.204;2023-06-10T10:01:23;99290.44;;;23.73;100.00
35023;BME280;21214;44.912;8.204;2023-06-10T10:03:50;99289.59;;;23.61;100.00
35023;BME280;21214;44.912;8.204;2023-06-10T10:06:16;99290.88;;;23.70;100.00
35023;BME280;21214;44.912;8.204;2023-06-10T10:08:42;99282.91;;;23.75;100.00
35023;BME280;21214;44.912;8.204;2023-06-10T10:11:08;99277.88;;;23.79;100.00
35023;BME280;21214;44.912;8.204;2023-06-10T10:13:34;99277.88;;;23.79;100.00
35023;BME280;21214;44.912;8.204;2023-06-10T10:16:01;99276.81;;;23.91;100.00
35023;BME280;21214;44.912;8.204;2023-06-10T10:18:29;99283.59;;;24.05;100.00
35023;BME280;21214;44.912;8.204;2023-06-10T10:20:56;99282.75;;;24.17;100.00
35023;BME280;21214;44.912;8.204;2023-06-10T10:23:28;99280.44;;;24.20;100.00
35023;BME280;21214;44.912;8.204;2023-06-10T10:25:55;99283.13;;;24.08;100.00
35023;BME280;21214;44.912;8.204;2023-06-10T10:28:24;99277.03;;;24.01;100.00
35023;BME280;21214;44.912;8.204;2023-06-10T10:30:52;99278.09;;;24.00;100.00
35023;BME280;21214;44.912;8.204;2023-06-10T10:33:20;99274.44;;;24.06;100.00
35023;BME280;21214;44.912;8.204;2023-06-10T10:35:48;99275.97;;;24.14;100.00
35023;BME280;21214;44.912;8.204;2023-06-10T10:38:14;99280.53;;;24.14;100.00
35023;BME280;21214;44.912;8.204;2023-06-10T10:40:40;99278.19;;;24.17;100.00
35023;BME280;21214;44.912;8.204;2023-06-10T10:43:08;99272.81;;;24.05;100.00
35023;BME280;21214;44.912;8.204;2023-06-10T10:45:35;99275.28;;;24.19;100.00
35023;BME280;21214;44.912;8.204;2023-06-10T10:48:04;99276.19;;;24.36;100.00
35023;BME280;21214;44.912;8.204;2023-06-10T10:50:30;99268.50;;;24.56;100.00
35023;BME280;21214;44.912;8.204;2023-06-10T10:52:58;99264.59;;;24.64;100.00
35023;BME280;21214;44.912;8.204;2023-06-10T10:55:24;99269.22;;;24.80;100.00
35023;BME280;21214;44.912;8.204;2023-06-10T10:57:57;99260.94;;;24.98;100.00
35023;BME280;21214;44.912;8.204;2023-06-10T11:02:51;99267.13;;;25.27;100.00
35023;BME280;21214;44.912;8.204;2023-06-10T11:05:20;99256.78;;;25.41;100.00
35023;BME280;21214;44.912;8.204;2023-06-10T11:07:56;99266.38;;;25.48;100.00
35023;BME280;21214;44.912;8.204;2023-06-10T11:10:30;99266.22;;;25.55;100.00
35023;BME280;21214;44.912;8.204;2023-06-10T11:12:56;99262.22;;;25.57;100.00
35023;BME280;21214;44.912;8.204;2023-06-10T11:15:26;99261.47;;;25.45;100.00
35023;BME280;21214;44.912;8.204;2023-06-10T11:18:10;99258.34;;;25.53;100.00
35023;BME280;21214;44.912;8.204;2023-06-10T11:20:58;99253.13;;;25.63;100.00
35023;BME280;21214;44.912;8.204;2023-06-10T11:28:34;99251.78;;;25.83;100.00
35023;BME280;21214;44.912;8.204;2023-06-10T11:30:59;99255.72;;;25.92;100.00
35023;BME280;21214;44.912;8.204;2023-06-10T11:33:25;99250.78;;;25.89;100.00
35023;BME280;21214;44.912;8.204;2023-06-10T11:35:51;99250.78;;;25.89;100.00
35023;BME280;21214;44.912;8.204;2023-06-10T11:38:17;99246.50;;;25.93;100.00
35023;BME280;21214;44.912;8.204;2023-06-10T11:40:50;99247.50;;;26.03;100.00
35023;BME280;21214;44.912;8.204;2023-06-10T11:43:18;99249.81;;;26.17;100.00
35023;BME280;21214;44.912;8.204;2023-06-10T11:45:44;99237.81;;;26.29;100.00
35023;BME280;21214;44.912;8.204;2023-06-10T11:48:10;99237.94;;;26.39;100.00
35023;BME280;21214;44.912;8.204;2023-06-10T11:50:37;99235.31;;;26.44;100.00
35023;BME280;21214;44.912;8.204;2023-06-10T11:53:03;99237.19;;;26.44;100.00
35023;BME280;21214;44.912;8.204;2023-06-10T11:55:47;99236.50;;;26.54;100.00
35023;BME280;21214;44.912;8.204;2023-06-10T11:58:17;99234.41;;;26.61;100.00
35023;BME280;21214;44.912;8.204;2023-06-10T12:00:49;99237.22;;;26.71;100.00
35023;BME280;21214;44.912;8.204;2023-06-10T12:03:15;99233.44;;;26.72;100.00
35023;BME280;21214;44.912;8.204;2023-06-10T12:06:00;99224.88;;;26.80;100.00
35023;BME280;21214;44.912;8.204;2023-06-10T12:08:26;99229.34;;;26.91;100.00
35023;BME280;21214;44.912;8.204;2023-06-10T12:10:53;99221.22;;;26.91;100.00
35023;BME280;21214;44.912;8.204;2023-06-10T12:13:18;99222.31;;;26.95;100.00
35023;BME280;21214;44.912;8.204;2023-06-10T12:15:44;99221.00;;;26.98;100.00
35023;BME280;21214;44.912;8.204;2023-06-10T12:18:43;99213.41;;;27.00;100.00
35023;BME280;21214;44.912;8.204;2023-06-10T12:21:02;99223.84;;;26.86;100.00
35023;BME280;21214;44.912;8.204;2023-06-10T12:23:28;99216.56;;;26.65;100.00
35023;BME280;21214;44.912;8.204;2023-06-10T12:25:54;99214.59;;;26.55;100.00
35023;BME280;21214;44.912;8.204;2023-06-10T12:28:20;99215.38;;;26.51;100.00
35023;BME280;21214;44.912;8.204;2023-06-10T12:30:46;99209.88;;;26.45;100.00
35023;BME280;21214;44.912;8.204;2023-06-10T12:33:16;99211.56;;;26.52;100.00
35023;BME280;21214;44.912;8.204;2023-06-10T12:35:46;99208.00;;;26.73;100.00
35023;BME280;21214;44.912;8.204;2023-06-10T12:38:12;99207.19;;;26.99;100.00
35023;BME280;21214;44.912;8.204;2023-06-10T12:40:38;99203.59;;;27.20;100.00
35023;BME280;21214;44.912;8.204;2023-06-10T12:43:07;99200.41;;;27.34;100.00
35023;BME280;21214;44.912;8.204;2023-06-10T12:45:36;99203.91;;;27.61;100.00
35023;BME280;21214;44.912;8.204;2023-06-10T12:48:04;99192.16;;;27.97;100.00
35023;BME280;21214;44.912;8.204;2023-06-10T12:50:30;99196.13;;;28.42;98.39
35023;BME280;21214;44.912;8.204;2023-06-10T12:52:56;99201.31;;;28.54;96.37
35023;BME280;21214;44.912;8.204;2023-06-10T12:55:22;99190.72;;;28.47;95.97
35023;BME280;21214;44.912;8.204;2023-06-10T12:57:48;99188.75;;;28.22;95.03
35023;BME280;21214;44.912;8.204;2023-06-10T13:00:14;99184.31;;;28.06;95.26
35023;BME280;21214;44.912;8.204;2023-06-10T13:02:39;99183.63;;;28.26;95.62
35023;BME280;21214;44.912;8.204;2023-06-10T13:05:05;99179.78;;;28.17;95.38